createdAt,value
2023-05-15T00:02:15.732Z,4.20
2023-05-15T00:05:37.979Z,4.20
2023-05-15T00:09:00.310Z,4.30
2023-05-15T00:12:22.520Z,3.95
2023-05-15T00:15:44.864Z,4.20
2023-05-15T00:19:07.334Z,3.97
2023-05-15T00:22:29.731Z,4.10
2023-05-15T00:25:52.450Z,4.13
2023-05-15T00:29:14.704Z,3.67
2023-05-15T00:32:36.952Z,3.63
2023-05-15T00:35:59.168Z,3.50
2023-05-15T00:39:21.460Z,3.50
2023-05-15T00:42:44.056Z,3.90
2023-05-15T00:46:07.583Z,3.85
2023-05-15T00:49:30.251Z,3.13
2023-05-15T00:52:53.610Z,3.45
2023-05-15T00:56:17.406Z,3.22
2023-05-15T00:59:42.301Z,3.08
2023-05-15T01:03:06.051Z,3.30
2023-05-15T01:06:30.815Z,3.60
2023-05-15T01:09:56.291Z,3.30
2023-05-15T01:13:21.770Z,3.28
2023-05-15T01:16:43.977Z,3.25
2023-05-15T01:20:10.366Z,2.85
2023-05-15T01:23:52.222Z,3.20
2023-05-15T01:27:30.396Z,3.30
2023-05-15T01:30:56.175Z,3.65
2023-05-15T01:34:23.273Z,2.63
2023-05-15T01:37:50.101Z,3.67
2023-05-15T01:41:28.261Z,3.00
2023-05-15T01:44:55.237Z,2.65
2023-05-15T01:48:19.400Z,3.30
2023-05-15T01:51:44.421Z,3.23
2023-05-15T01:55:08.737Z,3.03
2023-05-15T01:58:32.343Z,2.60
2023-05-15T02:01:55.884Z,2.90
2023-05-15T02:05:19.970Z,2.90
2023-05-15T02:08:43.677Z,3.03
2023-05-15T02:12:06.672Z,2.65
2023-05-15T02:15:30.623Z,2.88
2023-05-15T02:18:53.051Z,2.97
2023-05-15T02:22:15.602Z,2.90
2023-05-15T02:26:00.687Z,2.80
2023-05-15T02:29:55.403Z,2.28
2023-05-15T02:33:29.458Z,3.03
2023-05-15T02:36:53.221Z,3.17
2023-05-15T02:40:16.441Z,2.70
2023-05-15T02:43:40.329Z,2.70
2023-05-15T02:47:04.702Z,2.35
2023-05-15T02:50:29.033Z,2.60
2023-05-15T02:53:52.390Z,2.70
2023-05-15T02:57:14.612Z,2.72
2023-05-15T03:00:36.830Z,2.38
2023-05-15T03:03:59.099Z,2.30
2023-05-15T03:07:21.430Z,2.50
2023-05-15T03:10:44.565Z,2.22
2023-05-15T03:14:06.863Z,2.50
2023-05-15T03:17:29.255Z,2.60
2023-05-15T03:20:52.835Z,2.35
2023-05-15T03:24:15.154Z,2.50
2023-05-15T03:27:38.017Z,2.17
2023-05-15T03:31:00.350Z,2.17
2023-05-15T03:34:22.610Z,2.50
2023-05-15T03:37:44.912Z,2.08
2023-05-15T03:41:07.151Z,2.53
2023-05-15T03:44:29.672Z,2.60
2023-05-15T03:47:53.058Z,2.40
2023-05-15T03:51:15.540Z,2.47
2023-05-15T03:54:37.883Z,2.28
2023-05-15T03:58:00.431Z,2.40
2023-05-15T04:01:23.122Z,2.05
2023-05-15T04:04:45.457Z,2.30
2023-05-15T04:08:09.680Z,2.40
2023-05-15T04:11:31.958Z,2.43
2023-05-15T04:14:54.201Z,2.42
2023-05-15T04:18:16.526Z,2.15
2023-05-15T04:21:38.779Z,2.00
2023-05-15T04:25:01.287Z,2.00
2023-05-15T04:28:23.601Z,2.55
2023-05-15T04:31:45.832Z,2.15
2023-05-15T04:35:10.539Z,2.40
2023-05-15T04:38:33.271Z,2.22
2023-05-15T04:41:55.752Z,1.92
2023-05-15T04:45:18.291Z,2.40
2023-05-15T04:48:40.696Z,2.10
2023-05-15T04:52:03.086Z,2.20
2023-05-15T04:55:25.516Z,2.03
2023-05-15T04:58:47.912Z,2.47
2023-05-15T05:02:11.126Z,2.17
2023-05-15T05:05:33.447Z,2.45
2023-05-15T05:08:55.655Z,2.28
2023-05-15T05:12:17.902Z,2.15
2023-05-15T05:15:40.152Z,1.98
2023-05-15T05:19:02.661Z,2.25
2023-05-15T05:22:24.945Z,1.95
2023-05-15T05:25:47.158Z,2.53
2023-05-15T05:29:09.479Z,2.08
2023-05-15T05:32:31.977Z,2.05
2023-05-15T05:35:55.669Z,2.20
2023-05-15T05:39:18.521Z,1.95
2023-05-15T05:42:41.355Z,1.88
2023-05-15T05:46:03.601Z,1.95
2023-05-15T05:49:25.860Z,1.85
2023-05-15T05:52:48.470Z,2.22
2023-05-15T05:56:10.796Z,2.22
2023-05-15T05:59:33.136Z,1.95
2023-05-15T06:02:59.828Z,2.03
2023-05-15T06:06:22.460Z,2.20
2023-05-15T06:09:45.968Z,2.05
2023-05-15T06:13:08.319Z,2.58
2023-05-15T06:16:30.996Z,2.10
2023-05-15T06:19:53.893Z,2.30
2023-05-15T06:23:16.134Z,2.50
2023-05-15T06:26:38.495Z,2.20
2023-05-15T06:30:00.691Z,2.17
2023-05-15T06:33:22.928Z,1.98
2023-05-15T06:36:45.150Z,2.25
2023-05-15T06:40:08.103Z,1.92
2023-05-15T06:43:30.309Z,2.38
2023-05-15T06:46:52.863Z,2.38
2023-05-15T06:50:15.053Z,2.10
2023-05-15T06:53:37.261Z,2.10
2023-05-15T06:56:59.596Z,2.30
2023-05-15T07:00:21.961Z,1.90
2023-05-15T07:03:44.494Z,2.17
2023-05-15T07:07:07.234Z,2.10
2023-05-15T07:10:29.451Z,2.60
2023-05-15T07:13:53.051Z,2.10
2023-05-15T07:17:15.312Z,2.20
2023-05-15T07:20:38.005Z,2.10
2023-05-15T07:24:00.705Z,1.88
2023-05-15T07:27:22.959Z,2.05
2023-05-15T07:30:45.333Z,2.40
2023-05-15T07:34:07.550Z,1.70
2023-05-15T07:37:29.923Z,2.35
2023-05-15T07:40:52.158Z,1.80
2023-05-15T07:44:14.437Z,2.40
2023-05-15T07:47:36.871Z,2.20
2023-05-15T07:50:59.252Z,2.00
2023-05-15T07:54:21.808Z,2.22
2023-05-15T07:57:44.268Z,2.28
2023-05-15T08:01:06.761Z,2.22
2023-05-15T08:04:29.002Z,2.13
2023-05-15T08:07:51.538Z,1.75
2023-05-15T08:11:13.967Z,2.20
2023-05-15T08:14:36.455Z,2.10
2023-05-15T08:17:58.827Z,2.53
2023-05-15T08:21:21.179Z,2.00
2023-05-15T08:24:43.525Z,2.30
2023-05-15T08:28:06.126Z,2.20
2023-05-15T08:31:28.596Z,1.77
2023-05-15T08:34:50.902Z,2.13
2023-05-15T08:38:13.156Z,1.80
2023-05-15T08:41:52.960Z,1.90
2023-05-15T08:45:15.900Z,1.77
2023-05-15T08:48:41.745Z,1.63
2023-05-15T08:52:05.016Z,1.70
2023-05-15T08:55:29.005Z,1.80
2023-05-15T08:58:51.654Z,1.63
2023-05-15T09:02:14.633Z,1.80
2023-05-15T09:05:38.827Z,1.90
2023-05-15T09:09:05.223Z,1.60
2023-05-15T09:15:50.765Z,1.50
2023-05-15T09:19:15.391Z,1.60
2023-05-15T09:22:37.816Z,1.73
2023-05-15T09:26:00.328Z,1.80
2023-05-15T09:29:22.570Z,3.35
2023-05-15T09:32:44.888Z,6.05
2023-05-15T09:36:08.846Z,4.55
2023-05-15T09:39:31.246Z,2.80
2023-05-15T09:42:53.566Z,3.00
2023-05-15T09:46:17.441Z,5.07
2023-05-15T09:49:40.151Z,4.53
2023-05-15T09:53:03.039Z,3.90
2023-05-15T09:56:26.203Z,3.35
2023-05-15T09:59:49.129Z,3.03
2023-05-15T10:03:12.193Z,3.45
2023-05-15T10:06:40.084Z,3.58
2023-05-15T10:10:04.852Z,3.22
2023-05-15T10:13:28.996Z,3.13
2023-05-15T10:16:51.291Z,3.47
2023-05-15T10:20:15.584Z,3.45
2023-05-15T10:23:41.244Z,2.40
2023-05-15T10:27:04.250Z,2.38
2023-05-15T10:30:28.178Z,3.05
2023-05-15T10:33:51.906Z,2.42
2023-05-15T10:37:15.744Z,1.83
2023-05-15T10:40:39.509Z,2.40
2023-05-15T10:44:02.849Z,2.30
2023-05-15T10:47:25.498Z,2.45
2023-05-15T10:50:49.082Z,2.38
2023-05-15T10:54:11.413Z,2.20
2023-05-15T10:57:33.870Z,2.08
2023-05-15T11:00:56.806Z,1.40
2023-05-15T11:04:22.696Z,1.75
2023-05-15T11:07:49.637Z,1.90
2023-05-15T11:11:50.801Z,1.80
2023-05-15T11:15:13.326Z,1.80
2023-05-15T11:18:37.848Z,1.50
2023-05-15T11:22:13.570Z,1.70
2023-05-15T11:25:36.933Z,2.28
2023-05-15T11:29:18.132Z,1.38
2023-05-15T11:32:55.734Z,1.20
2023-05-15T11:36:24.335Z,1.30
2023-05-15T11:39:47.568Z,1.70
2023-05-15T11:43:26.060Z,1.27
2023-05-15T11:46:50.316Z,1.27
2023-05-15T11:50:12.905Z,1.47
2023-05-15T11:53:35.958Z,1.25
2023-05-15T11:56:58.946Z,1.30
2023-05-15T12:00:21.982Z,1.35
2023-05-15T12:03:48.457Z,1.17
2023-05-15T12:07:12.125Z,1.20
2023-05-15T12:10:39.735Z,1.38
2023-05-15T12:14:02.027Z,1.10
2023-05-15T12:17:24.830Z,1.13
2023-05-15T12:20:47.193Z,1.40
2023-05-15T12:24:11.912Z,1.40
2023-05-15T12:27:36.457Z,2.03
2023-05-15T12:30:59.861Z,1.30
2023-05-15T12:34:22.377Z,1.23
2023-05-15T12:37:45.724Z,1.25
2023-05-15T12:41:11.774Z,1.10
2023-05-15T12:44:34.006Z,1.08
2023-05-15T12:47:59.053Z,0.82
2023-05-15T12:54:44.937Z,1.40
2023-05-15T12:58:08.627Z,1.35
2023-05-15T13:01:30.924Z,1.30
2023-05-15T13:04:53.769Z,0.98
2023-05-15T13:08:19.200Z,1.20
2023-05-15T13:11:45.190Z,1.13
2023-05-15T13:15:08.263Z,0.93
2023-05-15T13:18:30.754Z,1.33
2023-05-15T13:21:52.972Z,1.30
2023-05-15T13:25:18.919Z,1.10
2023-05-15T13:28:41.205Z,1.02
2023-05-15T13:32:03.618Z,1.40
2023-05-15T13:35:25.880Z,1.00
2023-05-15T13:38:48.158Z,1.20
2023-05-15T13:42:10.468Z,1.02
2023-05-15T13:45:32.795Z,1.30
2023-05-15T13:48:55.045Z,1.23
2023-05-15T13:52:17.305Z,1.10
2023-05-15T13:55:39.604Z,1.10
2023-05-15T13:59:01.928Z,1.35
2023-05-15T14:02:27.064Z,0.98
2023-05-15T14:05:49.453Z,0.93
2023-05-15T14:09:11.745Z,1.00
2023-05-15T14:12:34.095Z,1.05
2023-05-15T14:15:56.583Z,1.00
2023-05-15T14:19:19.078Z,0.98
2023-05-15T14:22:41.448Z,1.48
2023-05-15T14:26:03.814Z,1.10
2023-05-15T14:29:26.058Z,1.27
2023-05-15T14:32:48.348Z,1.30
2023-05-15T14:36:10.630Z,0.90
2023-05-15T14:39:32.965Z,1.13
2023-05-15T14:42:55.339Z,1.40
2023-05-15T14:46:17.630Z,1.30
2023-05-15T14:49:40.662Z,0.95
2023-05-15T14:53:02.920Z,1.38
2023-05-15T14:56:25.927Z,1.00
2023-05-15T14:59:48.204Z,1.10
2023-05-15T15:03:10.952Z,2.33
2023-05-15T15:06:33.279Z,1.13
2023-05-15T15:09:55.556Z,1.00
2023-05-15T15:13:17.882Z,1.08
2023-05-15T15:16:40.400Z,1.00
2023-05-15T15:20:05.237Z,1.10
2023-05-15T15:23:27.578Z,1.33
2023-05-15T15:26:49.819Z,1.00
2023-05-15T15:30:12.977Z,0.90
2023-05-15T15:33:35.367Z,1.17
2023-05-15T15:36:57.590Z,0.82
2023-05-15T15:40:20.524Z,1.15
2023-05-15T15:43:42.838Z,0.80
2023-05-15T15:47:05.119Z,1.20
2023-05-15T15:50:27.839Z,1.23
2023-05-15T15:53:50.297Z,1.10
2023-05-15T15:57:16.368Z,1.20
2023-05-15T16:00:38.660Z,1.17
2023-05-15T16:04:01.088Z,1.13
2023-05-15T16:07:23.391Z,1.05
2023-05-15T16:10:45.948Z,1.52
2023-05-15T16:14:08.288Z,1.45
2023-05-15T16:17:30.607Z,1.10
2023-05-15T16:20:52.883Z,1.38
2023-05-15T16:24:15.507Z,1.20
2023-05-15T16:27:37.806Z,0.90
2023-05-15T16:31:00.919Z,1.30
2023-05-15T16:34:23.304Z,1.25
2023-05-15T16:37:45.637Z,1.17
2023-05-15T16:41:07.889Z,1.08
2023-05-15T16:44:30.138Z,1.00
2023-05-15T16:47:52.407Z,0.80
2023-05-15T16:51:14.742Z,0.88
2023-05-15T16:54:37.061Z,1.48
2023-05-15T16:57:59.375Z,1.55
2023-05-15T17:01:21.889Z,1.40
2023-05-15T17:04:44.153Z,1.42
2023-05-15T17:08:06.450Z,1.20
2023-05-15T17:11:28.714Z,1.48
2023-05-15T17:14:51.056Z,1.70
2023-05-15T17:18:13.292Z,1.50
2023-05-15T17:21:37.293Z,1.63
2023-05-15T17:24:59.603Z,1.40
2023-05-15T17:28:21.875Z,1.30
2023-05-15T17:31:44.354Z,1.10
2023-05-15T17:35:08.140Z,1.40
2023-05-15T17:38:30.491Z,1.17
2023-05-15T17:41:53.159Z,1.58
2023-05-15T17:45:15.565Z,1.20
2023-05-15T17:48:37.874Z,1.38
2023-05-15T17:52:00.142Z,1.40
2023-05-15T17:55:22.550Z,1.13
2023-05-15T17:58:44.902Z,1.40
2023-05-15T18:02:07.422Z,1.38
2023-05-15T18:05:29.730Z,2.17
2023-05-15T18:08:51.957Z,1.98
2023-05-15T18:12:14.246Z,1.65
2023-05-15T18:15:36.513Z,1.90
2023-05-15T18:18:59.478Z,1.13
2023-05-15T18:22:21.813Z,1.73
2023-05-15T18:25:44.519Z,1.50
2023-05-15T18:29:06.754Z,1.45
2023-05-15T18:32:28.984Z,1.60
2023-05-15T18:35:52.286Z,1.33
2023-05-15T18:39:15.704Z,1.55
2023-05-15T18:42:37.996Z,1.38
2023-05-15T18:46:00.353Z,1.02
2023-05-15T18:49:22.634Z,1.35
2023-05-15T18:52:45.082Z,0.98
2023-05-15T18:56:07.307Z,1.52
2023-05-15T18:59:29.702Z,1.50
2023-05-15T19:02:52.013Z,1.40
2023-05-15T19:06:19.714Z,1.10
2023-05-15T19:09:42.065Z,1.30
2023-05-15T19:13:04.564Z,1.33
2023-05-15T19:16:28.578Z,0.98
2023-05-15T19:19:54.371Z,1.43
2023-05-15T19:23:16.584Z,1.17
2023-05-15T19:26:39.020Z,1.30
2023-05-15T19:30:02.125Z,1.23
2023-05-15T19:33:24.723Z,1.05
2023-05-15T19:36:47.392Z,1.23
2023-05-15T19:40:09.992Z,1.13
2023-05-15T19:43:35.948Z,1.10
2023-05-15T19:46:58.224Z,1.13
2023-05-15T19:50:20.501Z,0.98
2023-05-15T19:53:43.739Z,0.82
2023-05-15T19:57:06.067Z,1.30
2023-05-15T20:00:28.598Z,1.17
2023-05-15T20:03:51.072Z,1.15
2023-05-15T20:07:13.399Z,1.00
2023-05-15T20:10:35.752Z,1.00
2023-05-15T20:13:58.070Z,1.08
2023-05-15T20:17:20.590Z,1.10
2023-05-15T20:20:43.058Z,1.17
2023-05-15T20:24:06.042Z,0.73
2023-05-15T20:27:28.370Z,0.95
2023-05-15T20:30:52.292Z,1.20
2023-05-15T20:34:15.951Z,1.08
2023-05-15T20:37:40.977Z,1.17
2023-05-15T20:41:03.920Z,0.60
2023-05-15T20:44:26.171Z,1.10
2023-05-15T20:47:49.380Z,0.90
2023-05-15T20:51:11.662Z,1.27
2023-05-15T20:54:33.985Z,0.82
2023-05-15T20:57:56.292Z,1.10
2023-05-15T21:01:18.604Z,0.98
2023-05-15T21:04:40.849Z,0.80
2023-05-15T21:08:03.423Z,0.82
2023-05-15T21:11:25.944Z,0.90
2023-05-15T21:14:48.226Z,0.93
2023-05-15T21:18:10.507Z,0.80
2023-05-15T21:21:32.818Z,1.02
2023-05-15T21:24:55.003Z,0.95
2023-05-15T21:28:17.454Z,1.20
2023-05-15T21:31:39.740Z,0.90
2023-05-15T21:35:02.085Z,0.80
2023-05-15T21:38:24.348Z,0.95
2023-05-15T21:41:46.835Z,0.93
2023-05-15T21:45:09.308Z,0.90
2023-05-15T21:48:31.646Z,0.60
2023-05-15T21:51:53.896Z,0.95
2023-05-15T21:55:16.426Z,0.77
2023-05-15T21:58:38.633Z,0.60
2023-05-15T22:02:01.062Z,1.00
2023-05-15T22:05:23.351Z,0.88
2023-05-15T22:08:45.553Z,1.00
2023-05-15T22:12:08.224Z,0.60
2023-05-15T22:15:30.580Z,1.08
2023-05-15T22:18:53.851Z,1.02
2023-05-15T22:22:16.260Z,1.02
2023-05-15T22:25:38.419Z,0.80
2023-05-15T22:29:00.670Z,1.08
2023-05-15T22:32:23.129Z,1.13
2023-05-15T22:35:45.859Z,0.80
2023-05-15T22:39:08.206Z,0.80
2023-05-15T22:42:30.426Z,1.13
2023-05-15T22:45:52.794Z,0.70
2023-05-15T22:49:19.267Z,0.75
2023-05-15T22:52:41.673Z,0.57
2023-05-15T22:56:03.979Z,0.75
2023-05-15T22:59:26.530Z,0.85
2023-05-15T23:02:48.831Z,0.70
2023-05-15T23:06:17.016Z,0.80
2023-05-15T23:09:39.370Z,0.93
2023-05-15T23:13:01.714Z,0.90
2023-05-15T23:16:25.622Z,0.75
2023-05-15T23:19:48.149Z,1.10
2023-05-15T23:23:10.484Z,0.60
2023-05-15T23:26:32.824Z,0.80
2023-05-15T23:29:55.042Z,0.60
2023-05-15T23:33:17.270Z,1.00
2023-05-15T23:36:39.555Z,0.88
2023-05-15T23:40:02.022Z,0.80
2023-05-15T23:43:24.331Z,0.82
2023-05-15T23:46:46.716Z,0.68
2023-05-15T23:50:09.140Z,0.65
2023-05-15T23:53:31.652Z,0.60
2023-05-15T23:56:53.891Z,1.20
